Time;durP1;ratioP1;P1;durP2;ratioP2;P2;SDS_P1;SDS_P2;PMS_P1;PMS_P2;Temp;Humidity;BMP_temperature;BMP_pressure;BME280_temperature;BME280_humidity;BME280_pressure;Samples;Min_cycle;Max_cycle;Signal;HPM_P1;HPM_P2
2022/06/14 00:01:29;;;;;;;;;;;24.40;42.10;;;;;;6190420;23;19966;-80
2022/06/14 00:03:57;;;;;;;;;;;24.30;42.60;;;;;;6189643;23;19920;-81
2022/06/14 00:06:26;;;;;;;;;;;24.30;42.60;;;;;;6190095;23;20356;-80
2022/06/14 00:08:53;;;;;;;;;;;24.20;42.40;;;;;;6188366;23;19927;-77
2022/06/14 00:11:24;;;;;;;;;;;24.20;42.50;;;;;;6189543;23;19920;-78
2022/06/14 00:13:52;;;;;;;;;;;24.20;42.70;;;;;;6190422;23;19920;-81
2022/06/14 00:16:19;;;;;;;;;;;24.10;42.80;;;;;;6216303;23;19966;-81
2022/06/14 00:18:46;;;;;;;;;;;24.10;41.90;;;;;;6190403;23;19966;-81
2022/06/14 00:21:13;;;;;;;;;;;24.20;41.70;;;;;;6189861;23;19970;-81
2022/06/14 00:23:41;;;;;;;;;;;24.20;41.60;;;;;;6189492;23;19920;-80
2022/06/14 00:26:09;;;;;;;;;;;24.20;41.30;;;;;;6190238;23;19920;-77
2022/06/14 00:28:36;;;;;;;;;;;24.20;41.40;;;;;;6215979;23;19920;-81
2022/06/14 00:31:05;;;;;;;;;;;24.20;41.20;;;;;;6189582;23;20299;-80
2022/06/14 00:33:32;;;;;;;;;;;24.20;41.20;;;;;;6189469;23;19986;-81
2022/06/14 00:36:07;;;;;;;;;;;24.20;41.30;;;;;;6190177;23;19950;-81
2022/06/14 00:38:34;;;;;;;;;;;24.20;41.30;;;;;;6189214;23;19978;-80
2022/06/14 00:41:02;;;;;;;;;;;24.20;41.40;;;;;;6189496;23;19939;-81
2022/06/14 00:43:30;;;;;;;;;;;24.10;41.30;;;;;;6189787;23;19920;-81
2022/06/14 00:45:59;;;;;;;;;;;24.10;40.60;;;;;;6188905;23;20333;-77
2022/06/14 00:48:28;;;;;;;;;;;24.00;41.00;;;;;;6189753;23;19920;-77
2022/06/14 00:51:00;;;;;;;;;;;24.00;41.20;;;;;;6189742;23;19982;-77
2022/06/14 00:53:42;;;;;;;;;;;24.00;41.20;;;;;;6215285;23;19970;-77
2022/06/14 00:56:15;;;;;;;;;;;24.00;40.20;;;;;;6189404;23;20407;-80
2022/06/14 00:58:44;;;;;;;;;;;24.00;40.80;;;;;;6189611;23;19920;-77
2022/06/14 01:01:17;;;;;;;;;;;23.90;40.80;;;;;;6190207;23;19919;-81
2022/06/14 01:03:50;;;;;;;;;;;23.90;40.80;;;;;;6189381;23;20406;-80
2022/06/14 01:06:40;;;;;;;;;;;23.90;41.10;;;;;;6190062;23;19971;-80
2022/06/14 01:09:17;;;;;;;;;;;23.90;41.10;;;;;;6191312;23;19924;-81
2022/06/14 01:11:47;;;;;;;;;;;23.80;41.60;;;;;;6191783;23;19924;-80
2022/06/14 01:14:15;;;;;;;;;;;23.80;41.30;;;;;;6191362;23;19920;-80
2022/06/14 01:16:42;;;;;;;;;;;23.70;41.20;;;;;;6191226;23;19920;-77
2022/06/14 01:19:13;;;;;;;;;;;23.70;41.70;;;;;;6191256;23;19923;-80
2022/06/14 01:21:40;;;;;;;;;;;23.60;41.70;;;;;;6191614;23;19924;-81
2022/06/14 01:24:07;;;;;;;;;;;23.60;41.80;;;;;;6191555;23;19927;-80
2022/06/14 01:26:34;;;;;;;;;;;23.60;41.80;;;;;;6217437;23;20345;-77
2022/06/14 01:29:02;;;;;;;;;;;23.60;41.70;;;;;;6191085;23;19971;-77
2022/06/14 01:31:30;;;;;;;;;;;23.60;40.80;;;;;;6191543;23;19920;-81
2022/06/14 01:33:58;;;;;;;;;;;23.60;40.50;;;;;;6190575;23;19969;-81
2022/06/14 01:36:36;;;;;;;;;;;23.60;41.00;;;;;;6190097;23;20395;-81
2022/06/14 01:39:05;;;;;;;;;;;23.60;40.70;;;;;;6191378;23;19920;-81
2022/06/14 01:41:43;;;;;;;;;;;23.60;41.00;;;;;;6190858;23;19935;-81
2022/06/14 01:44:20;;;;;;;;;;;23.60;41.50;;;;;;6191132;23;19939;-77
2022/06/14 01:47:11;;;;;;;;;;;23.50;41.30;;;;;;6191522;23;20375;-81
2022/06/14 01:52:28;;;;;;;;;;;23.50;41.40;;;;;;6217199;23;20341;-77
2022/06/14 01:55:13;;;;;;;;;;;23.50;40.90;;;;;;6190779;23;20171;-77
2022/06/14 01:57:47;;;;;;;;;;;23.50;40.70;;;;;;6217345;23;19924;-77
2022/06/14 02:00:17;;;;;;;;;;;23.50;41.10;;;;;;6191285;23;19920;-78
2022/06/14 02:02:44;;;;;;;;;;;23.40;41.30;;;;;;6190955;23;20256;-81
2022/06/14 02:05:13;;;;;;;;;;;23.40;41.30;;;;;;6190398;23;19919;-81
2022/06/14 02:07:54;;;;;;;;;;;23.40;41.10;;;;;;6191243;23;19927;-80
2022/06/14 02:10:21;;;;;;;;;;;23.40;41.20;;;;;;6190984;23;20341;-81
2022/06/14 02:12:55;;;;;;;;;;;23.40;41.60;;;;;;6191278;23;19921;-77
2022/06/14 02:15:39;;;;;;;;;;;23.30;41.70;;;;;;6190651;23;19924;-77
2022/06/14 02:18:10;;;;;;;;;;;23.30;41.90;;;;;;6190876;23;19928;-77
2022/06/14 02:20:48;;;;;;;;;;;23.30;42.20;;;;;;6191592;23;19924;-81
2022/06/14 02:23:15;;;;;;;;;;;23.20;42.30;;;;;;6191103;23;19920;-81
2022/06/14 02:25:48;;;;;;;;;;;23.20;42.10;;;;;;6190705;23;19958;-77
2022/06/14 02:28:22;;;;;;;;;;;23.20;42.40;;;;;;6191263;23;20357;-77
2022/06/14 02:31:07;;;;;;;;;;;23.10;42.70;;;;;;6191177;23;19920;-80
2022/06/14 02:33:41;;;;;;;;;;;23.10;42.40;;;;;;6191270;23;19974;-77
2022/06/14 02:36:15;;;;;;;;;;;23.10;42.60;;;;;;6215917;23;19978;-80
2022/06/14 02:38:48;;;;;;;;;;;23.10;42.70;;;;;;6217039;23;19920;-77
2022/06/14 02:41:23;;;;;;;;;;;23.10;42.70;;;;;;6216637;23;19940;-80
2022/06/14 02:44:09;;;;;;;;;;;23.10;42.90;;;;;;6190056;23;19970;-77
2022/06/14 02:46:45;;;;;;;;;;;23.10;43.10;;;;;;6190993;23;19978;-80
2022/06/14 02:49:17;;;;;;;;;;;23.10;42.40;;;;;;6216862;23;19924;-78
2022/06/14 02:51:56;;;;;;;;;;;23.10;41.10;;;;;;6216574;23;20375;-78
2022/06/14 02:54:28;;;;;;;;;;;23.10;41.10;;;;;;6216784;23;19924;-80
2022/06/14 02:56:58;;;;;;;;;;;23.10;41.40;;;;;;6190876;23;20277;-77
2022/06/14 03:00:04;;;;;;;;;;;23.10;41.80;;;;;;6190551;23;19920;-77
2022/06/14 03:02:35;;;;;;;;;;;23.10;41.90;;;;;;6043113;23;20347;-79
2022/06/14 03:05:01;;;;;;;;;;;23.00;41.80;;;;;;6067267;23;19933;-80
2022/06/14 03:07:46;;;;;;;;;;;23.00;41.90;;;;;;6118033;23;20355;-81
2022/06/14 03:10:13;;;;;;;;;;;23.00;42.30;;;;;;6216126;23;19920;-77
2022/06/14 03:12:45;;;;;;;;;;;23.00;42.20;;;;;;6190389;23;19989;-77
2022/06/14 03:15:23;;;;;;;;;;;23.00;42.20;;;;;;6190484;23;19920;-81
2022/06/14 03:17:59;;;;;;;;;;;22.90;42.30;;;;;;6216563;23;20399;-77
2022/06/14 03:20:31;;;;;;;;;;;22.90;42.60;;;;;;6216587;23;19946;-81
2022/06/14 03:23:28;;;;;;;;;;;22.90;42.60;;;;;;6190351;23;19923;-79
2022/06/14 03:25:58;;;;;;;;;;;22.80;42.50;;;;;;6159539;23;19959;-77
2022/06/14 03:28:25;;;;;;;;;;;22.80;43.00;;;;;;6189845;23;20237;-77
2022/06/14 03:30:57;;;;;;;;;;;22.70;42.90;;;;;;6190127;23;19924;-77
2022/06/14 03:33:29;;;;;;;;;;;22.70;43.00;;;;;;6190082;23;19920;-76
2022/06/14 03:35:56;;;;;;;;;;;22.70;43.10;;;;;;6190406;23;19924;-80
2022/06/14 03:38:40;;;;;;;;;;;22.70;43.10;;;;;;6216125;23;19920;-77
2022/06/14 03:41:09;;;;;;;;;;;22.60;43.10;;;;;;6189607;23;19923;-79
2022/06/14 03:43:36;;;;;;;;;;;22.60;43.50;;;;;;6216326;23;19924;-76
2022/06/14 03:46:06;;;;;;;;;;;22.60;44.10;;;;;;6216412;23;19920;-77
2022/06/14 03:48:36;;;;;;;;;;;22.50;44.30;;;;;;6189790;23;20340;-81
2022/06/14 03:51:22;;;;;;;;;;;22.40;44.40;;;;;;6189988;23;19970;-77
2022/06/14 03:53:48;;;;;;;;;;;22.40;44.70;;;;;;6189494;23;20233;-76
2022/06/14 03:56:42;;;;;;;;;;;22.30;44.30;;;;;;6190367;23;19920;-77
2022/06/14 03:59:13;;;;;;;;;;;22.30;44.30;;;;;;6189837;23;19951;-77
2022/06/14 04:01:58;;;;;;;;;;;22.30;43.90;;;;;;6189135;23;19920;-76
2022/06/14 04:04:28;;;;;;;;;;;22.30;44.00;;;;;;6189475;23;19927;-76
2022/06/14 04:07:14;;;;;;;;;;;22.30;43.70;;;;;;6189573;23;19970;-76
2022/06/14 04:09:47;;;;;;;;;;;22.30;43.80;;;;;;6190310;23;19974;-79
2022/06/14 04:12:20;;;;;;;;;;;22.30;43.90;;;;;;6190259;23;19970;-80
2022/06/14 04:14:56;;;;;;;;;;;22.30;43.80;;;;;;6190356;23;20033;-81
2022/06/14 04:17:28;;;;;;;;;;;22.30;44.10;;;;;;6216322;23;19927;-76
2022/06/14 04:19:59;;;;;;;;;;;22.30;44.20;;;;;;6189906;23;19920;-80
2022/06/14 04:22:40;;;;;;;;;;;22.20;44.20;;;;;;6189620;23;19978;-76
2022/06/14 04:25:20;;;;;;;;;;;22.20;44.30;;;;;;6215825;23;19927;-76
2022/06/14 04:27:57;;;;;;;;;;;22.20;43.90;;;;;;6189381;23;20410;-76
2022/06/14 04:30:30;;;;;;;;;;;22.20;44.10;;;;;;6216314;23;19970;-82
2022/06/14 04:33:02;;;;;;;;;;;22.20;43.90;;;;;;6190177;23;19924;-79
2022/06/14 04:35:36;;;;;;;;;;;22.20;43.80;;;;;;6189428;23;19920;-76
2022/06/14 04:38:14;;;;;;;;;;;22.20;43.80;;;;;;6184212;23;19921;-76
2022/06/14 04:40:53;;;;;;;;;;;22.20;44.20;;;;;;6184044;23;19939;-77
2022/06/14 04:43:29;;;;;;;;;;;22.20;44.20;;;;;;6187024;23;19975;-77
2022/06/14 04:46:03;;;;;;;;;;;22.20;44.30;;;;;;6186908;23;19924;-83
2022/06/14 04:48:32;;;;;;;;;;;22.20;44.70;;;;;;6187998;23;19920;-76
2022/06/14 04:51:02;;;;;;;;;;;22.10;44.50;;;;;;6186778;23;20364;-77
2022/06/14 04:53:35;;;;;;;;;;;22.10;44.80;;;;;;6187664;23;19920;-81
2022/06/14 04:56:05;;;;;;;;;;;22.10;45.00;;;;;;6186297;23;19929;-77
2022/06/14 04:58:44;;;;;;;;;;;22.10;45.00;;;;;;6187617;23;19924;-80
2022/06/14 05:01:19;;;;;;;;;;;22.10;45.10;;;;;;6186019;23;19920;-80
2022/06/14 05:03:50;;;;;;;;;;;22.00;45.20;;;;;;6185838;23;19982;-79
2022/06/14 05:06:19;;;;;;;;;;;22.10;45.00;;;;;;6186355;23;19924;-81
2022/06/14 05:09:00;;;;;;;;;;;22.10;45.00;;;;;;6185849;23;19928;-77
2022/06/14 05:11:35;;;;;;;;;;;22.10;44.50;;;;;;6185898;23;19982;-80
2022/06/14 05:14:05;;;;;;;;;;;22.20;43.70;;;;;;6186115;23;19925;-81
2022/06/14 05:16:37;;;;;;;;;;;22.30;43.80;;;;;;6187798;23;19924;-81
2022/06/14 05:19:17;;;;;;;;;;;22.30;44.30;;;;;;6186402;23;19920;-80
2022/06/14 05:22:08;;;;;;;;;;;22.40;44.60;;;;;;6185667;23;20356;-80
2022/06/14 05:24:37;;;;;;;;;;;22.40;45.00;;;;;;6175165;23;19920;-77
2022/06/14 05:27:12;;;;;;;;;;;22.50;45.10;;;;;;6185519;23;19924;-80
2022/06/14 05:29:51;;;;;;;;;;;22.60;45.00;;;;;;6187039;23;19970;-79
2022/06/14 05:32:34;;;;;;;;;;;22.60;44.20;;;;;;6186485;23;19967;-79
2022/06/14 05:35:19;;;;;;;;;;;22.70;44.00;;;;;;6187222;23;19999;-75
2022/06/14 05:37:56;;;;;;;;;;;22.70;44.00;;;;;;6205489;23;19924;-77
2022/06/14 05:40:25;;;;;;;;;;;22.80;44.20;;;;;;6217098;23;19943;-76
2022/06/14 05:43:19;;;;;;;;;;;22.80;43.30;;;;;;6190625;23;19920;-80
2022/06/14 05:45:55;;;;;;;;;;;22.90;44.70;;;;;;6184265;23;19970;-77
2022/06/14 05:48:29;;;;;;;;;;;23.00;45.30;;;;;;6190880;23;19924;-79
2022/06/14 05:50:57;;;;;;;;;;;23.00;45.40;;;;;;6189887;23;19920;-79
2022/06/14 05:53:36;;;;;;;;;;;23.00;45.10;;;;;;6216981;23;19920;-80
2022/06/14 05:56:26;;;;;;;;;;;23.10;44.80;;;;;;6190438;23;19920;-77
2022/06/14 05:59:32;;;;;;;;;;;23.10;44.20;;;;;;6217595;23;19999;-77
2022/06/14 06:02:03;;;;;;;;;;;23.20;44.10;;;;;;6043584;23;19925;-76
2022/06/14 06:04:42;;;;;;;;;;;23.30;43.70;;;;;;6196027;23;20030;-80
2022/06/14 06:07:11;;;;;;;;;;;23.30;43.60;;;;;;6190604;23;19927;-77
2022/06/14 06:09:38;;;;;;;;;;;23.30;43.80;;;;;;6185394;23;19920;-76
2022/06/14 06:12:28;;;;;;;;;;;23.30;43.20;;;;;;6186039;23;19920;-80
2022/06/14 06:14:59;;;;;;;;;;;23.40;43.60;;;;;;6175090;23;19921;-78
2022/06/14 06:17:38;;;;;;;;;;;23.40;43.90;;;;;;6186231;23;20273;-80
2022/06/14 06:20:09;;;;;;;;;;;23.40;45.00;;;;;;6185518;23;20333;-79
2022/06/14 06:22:39;;;;;;;;;;;23.40;44.80;;;;;;6187403;23;20341;-77
2022/06/14 06:25:10;;;;;;;;;;;23.50;43.80;;;;;;6185678;23;19970;-80
2022/06/14 06:27:44;;;;;;;;;;;23.50;43.90;;;;;;6185795;23;19978;-77
2022/06/14 06:30:23;;;;;;;;;;;23.40;44.00;;;;;;6185812;23;19920;-79
2022/06/14 06:32:51;;;;;;;;;;;23.40;43.90;;;;;;6185815;23;19970;-80
2022/06/14 06:35:18;;;;;;;;;;;23.40;43.80;;;;;;6185559;23;20345;-79
2022/06/14 06:37:48;;;;;;;;;;;23.40;43.70;;;;;;6184937;23;20341;-77
2022/06/14 06:40:24;;;;;;;;;;;23.30;44.40;;;;;;6185974;23;19927;-80
2022/06/14 06:42:58;;;;;;;;;;;23.40;45.90;;;;;;6160685;23;19931;-77
2022/06/14 06:45:29;;;;;;;;;;;23.40;45.30;;;;;;6161065;23;19944;-77
2022/06/14 06:47:59;;;;;;;;;;;23.50;45.80;;;;;;6187016;23;19978;-79
2022/06/14 06:50:29;;;;;;;;;;;23.60;45.30;;;;;;6160378;23;19920;-78
2022/06/14 06:52:55;;;;;;;;;;;23.60;45.90;;;;;;6160494;23;20304;-77
2022/06/14 06:55:41;;;;;;;;;;;23.80;44.20;;;;;;6186083;23;19921;-76
2022/06/14 06:58:20;;;;;;;;;;;23.80;44.20;;;;;;6161046;23;20349;-76
2022/06/14 07:00:48;;;;;;;;;;;23.90;45.10;;;;;;6160545;23;19947;-80
2022/06/14 07:03:41;;;;;;;;;;;24.00;45.70;;;;;;6160212;23;19920;-79
2022/06/14 07:06:19;;;;;;;;;;;24.10;45.20;;;;;;6154306;23;19920;-79
2022/06/14 07:08:56;;;;;;;;;;;24.20;44.70;;;;;;6162002;23;19920;-79
2022/06/14 07:11:27;;;;;;;;;;;24.40;43.90;;;;;;6160738;23;20297;-76
2022/06/14 07:14:00;;;;;;;;;;;24.50;43.40;;;;;;6160153;23;19924;-77
2022/06/14 07:16:33;;;;;;;;;;;24.60;43.30;;;;;;6160440;23;19949;-79
2022/06/14 07:19:07;;;;;;;;;;;24.80;44.40;;;;;;6160815;23;19920;-80
2022/06/14 07:21:38;;;;;;;;;;;25.00;44.80;;;;;;6159904;23;19920;-79
2022/06/14 07:24:17;;;;;;;;;;;25.10;45.50;;;;;;6160493;23;19975;-77
2022/06/14 07:26:45;;;;;;;;;;;25.30;45.60;;;;;;6186279;23;20280;-80
2022/06/14 07:29:24;;;;;;;;;;;25.40;45.70;;;;;;6160470;23;19978;-79
2022/06/14 07:31:57;;;;;;;;;;;25.60;46.60;;;;;;6186565;23;20238;-80
2022/06/14 07:34:26;;;;;;;;;;;25.70;46.80;;;;;;6160215;23;20256;-77
2022/06/14 07:36:52;;;;;;;;;;;25.80;47.50;;;;;;6160223;23;20300;-77
2022/06/14 07:39:23;;;;;;;;;;;25.90;48.30;;;;;;6159480;23;19921;-80
2022/06/14 07:42:02;;;;;;;;;;;26.00;49.00;;;;;;6159964;23;19920;-79
2022/06/14 07:44:29;;;;;;;;;;;26.00;48.00;;;;;;6160235;23;19967;-77
2022/06/14 07:46:55;;;;;;;;;;;26.10;47.90;;;;;;6159470;23;19920;-77
2022/06/14 07:49:29;;;;;;;;;;;26.10;48.20;;;;;;6186199;23;19975;-77
2022/06/14 07:52:01;;;;;;;;;;;26.30;47.70;;;;;;6186342;23;20356;-80
2022/06/14 07:54:30;;;;;;;;;;;26.40;47.50;;;;;;6186056;23;20253;-77
2022/06/14 07:56:57;;;;;;;;;;;26.40;47.20;;;;;;6186071;23;20341;-77
2022/06/14 07:59:27;;;;;;;;;;;26.50;48.00;;;;;;6186016;23;19920;-79
2022/06/14 08:02:05;;;;;;;;;;;26.60;47.50;;;;;;6159896;23;19970;-77
2022/06/14 08:04:36;;;;;;;;;;;26.70;46.50;;;;;;6159874;23;20004;-78
2022/06/14 08:07:07;;;;;;;;;;;26.80;47.30;;;;;;6185611;23;19931;-80
2022/06/14 08:09:40;;;;;;;;;;;27.00;46.60;;;;;;6185418;23;19920;-80
2022/06/14 08:12:10;;;;;;;;;;;27.20;46.80;;;;;;6159951;23;19924;-77
2022/06/14 08:14:55;;;;;;;;;;;27.40;46.40;;;;;;6159957;23;19979;-80
2022/06/14 08:17:29;;;;;;;;;;;27.50;45.30;;;;;;6159993;23;19928;-79
2022/06/14 08:20:16;;;;;;;;;;;27.60;44.40;;;;;;6159845;23;19971;-77
2022/06/14 08:22:46;;;;;;;;;;;27.70;44.60;;;;;;6160666;23;19921;-78
2022/06/14 08:25:15;;;;;;;;;;;27.70;44.60;;;;;;6159790;23;19967;-79
2022/06/14 08:27:45;;;;;;;;;;;27.70;44.60;;;;;;6159680;23;19928;-80
2022/06/14 08:30:20;;;;;;;;;;;27.90;44.80;;;;;;6159508;23;19929;-80
2022/06/14 08:33:08;;;;;;;;;;;28.10;44.00;;;;;;6159988;23;20256;-77
2022/06/14 08:35:40;;;;;;;;;;;28.20;43.40;;;;;;6160080;23;20361;-80
2022/06/14 08:38:11;;;;;;;;;;;28.40;43.70;;;;;;6159764;23;19927;-80
2022/06/14 08:40:51;;;;;;;;;;;28.60;43.10;;;;;;6160435;23;19930;-78
2022/06/14 08:43:28;;;;;;;;;;;28.80;43.40;;;;;;6159606;23;20408;-80
2022/06/14 08:45:55;;;;;;;;;;;28.80;40.80;;;;;;6159527;23;19920;-79
2022/06/14 08:48:22;;;;;;;;;;;28.80;40.80;;;;;;6159791;23;19999;-79
2022/06/14 08:51:09;;;;;;;;;;;28.90;42.70;;;;;;6159392;23;19920;-77
2022/06/14 08:53:54;;;;;;;;;;;29.00;41.70;;;;;;6185352;23;19920;-77
2022/06/14 08:56:40;;;;;;;;;;;29.00;40.50;;;;;;6159543;23;19920;-80
2022/06/14 08:59:13;;;;;;;;;;;29.10;41.10;;;;;;6086266;23;20261;-77
2022/06/14 09:01:49;;;;;;;;;;;29.20;38.90;;;;;;6159368;23;19921;-78
2022/06/14 09:04:16;;;;;;;;;;;29.20;37.90;;;;;;6159809;23;20233;-77
2022/06/14 09:06:57;;;;;;;;;;;29.20;39.10;;;;;;6185210;23;19921;-77
2022/06/14 09:09:36;;;;;;;;;;;29.40;40.40;;;;;;6159429;23;19956;-79
2022/06/14 09:12:07;;;;;;;;;;;29.40;39.10;;;;;;6159673;23;19928;-81
2022/06/14 09:14:38;;;;;;;;;;;29.40;38.40;;;;;;6185308;23;19948;-77
2022/06/14 09:17:24;;;;;;;;;;;29.50;38.30;;;;;;6185154;23;19921;-76
2022/06/14 09:20:11;;;;;;;;;;;29.70;37.60;;;;;;6185416;23;20348;-80
2022/06/14 09:22:40;;;;;;;;;;;29.70;37.90;;;;;;6185371;23;19967;-80
2022/06/14 09:25:39;;;;;;;;;;;29.70;37.40;;;;;;6163740;23;19924;-78
2022/06/14 09:28:25;;;;;;;;;;;29.70;37.90;;;;;;6160085;23;20321;-80
2022/06/14 09:31:10;;;;;;;;;;;29.80;36.90;;;;;;6161235;23;19986;-80
2022/06/14 09:33:40;;;;;;;;;;;29.90;37.40;;;;;;6161337;23;19987;-80
2022/06/14 09:36:36;;;;;;;;;;;29.80;37.10;;;;;;6161640;23;20261;-80
2022/06/14 09:39:06;;;;;;;;;;;29.70;37.90;;;;;;6130489;23;19924;-78
2022/06/14 09:41:33;;;;;;;;;;;29.60;37.50;;;;;;6187451;23;19928;-77
2022/06/14 09:44:15;;;;;;;;;;;29.60;38.20;;;;;;6160944;23;19920;-77
2022/06/14 09:46:57;;;;;;;;;;;29.70;36.80;;;;;;6160858;23;19925;-80
2022/06/14 09:49:49;;;;;;;;;;;29.80;38.10;;;;;;6161188;23;20002;-78
2022/06/14 09:52:19;;;;;;;;;;;30.00;37.40;;;;;;6160987;23;19924;-80
2022/06/14 09:55:00;;;;;;;;;;;30.30;37.70;;;;;;6161299;23;20304;-79
2022/06/14 09:57:46;;;;;;;;;;;30.40;36.40;;;;;;6160638;23;19924;-77
2022/06/14 10:00:31;;;;;;;;;;;30.40;35.90;;;;;;6160645;23;19983;-78
2022/06/14 10:03:27;;;;;;;;;;;30.50;36.20;;;;;;6161210;23;19967;-81
2022/06/14 10:05:58;;;;;;;;;;;30.50;35.90;;;;;;6131161;23;20334;-80
2022/06/14 10:08:36;;;;;;;;;;;30.30;37.00;;;;;;6186972;23;19925;-80
2022/06/14 10:11:15;;;;;;;;;;;30.40;37.40;;;;;;6160587;23;19920;-80
2022/06/14 10:13:45;;;;;;;;;;;30.60;36.70;;;;;;6161100;23;19928;-77
2022/06/14 10:16:30;;;;;;;;;;;30.80;36.80;;;;;;6160655;23;19952;-80
2022/06/14 10:19:13;;;;;;;;;;;31.00;36.30;;;;;;6186573;23;19920;-80
2022/06/14 10:21:46;;;;;;;;;;;30.80;35.70;;;;;;6160920;23;19920;-80
2022/06/14 10:24:30;;;;;;;;;;;30.80;35.50;;;;;;6186913;23;19920;-81
2022/06/14 10:29:54;;;;;;;;;;;31.00;36.30;;;;;;6187028;23;19920;-78
2022/06/14 10:32:24;;;;;;;;;;;30.90;36.30;;;;;;6187160;23;19921;-80
2022/06/14 10:34:55;;;;;;;;;;;30.90;35.80;;;;;;6186332;23;19920;-81
2022/06/14 10:37:42;;;;;;;;;;;30.90;35.00;;;;;;6160989;23;20337;-77
2022/06/14 10:40:28;;;;;;;;;;;31.00;35.20;;;;;;6135342;23;19920;-79
2022/06/14 10:43:13;;;;;;;;;;;31.10;35.30;;;;;;6160464;23;19947;-80
2022/06/14 10:46:17;;;;;;;;;;;31.20;36.00;;;;;;6163686;23;19920;-77
2022/06/14 10:48:59;;;;;;;;;;;31.30;36.70;;;;;;6159880;23;19924;-79
2022/06/14 10:51:32;;;;;;;;;;;31.50;36.20;;;;;;6160735;23;19920;-77
2022/06/14 10:54:16;;;;;;;;;;;31.60;36.10;;;;;;6160310;23;19997;-81
2022/06/14 10:56:42;;;;;;;;;;;31.70;35.30;;;;;;6186594;23;19936;-79
2022/06/14 10:59:25;;;;;;;;;;;31.60;35.90;;;;;;6160765;23;19987;-79
2022/06/14 11:02:27;;;;;;;;;;;31.60;35.80;;;;;;6160208;23;19928;-78
2022/06/14 11:05:01;;;;;;;;;;;31.70;36.40;;;;;;6014345;23;19993;-78
2022/06/14 11:07:35;;;;;;;;;;;31.90;36.70;;;;;;6163302;23;19920;-81
2022/06/14 11:10:19;;;;;;;;;;;31.80;36.00;;;;;;6186422;23;19920;-81
2022/06/14 11:12:46;;;;;;;;;;;31.90;35.60;;;;;;6186376;23;19928;-77
2022/06/14 11:15:19;;;;;;;;;;;31.70;36.00;;;;;;6159914;23;19971;-76
2022/06/14 11:17:55;;;;;;;;;;;31.80;36.40;;;;;;6160117;23;19924;-78
2022/06/14 11:20:22;;;;;;;;;;;31.80;35.60;;;;;;6160001;23;19924;-78
2022/06/14 11:22:54;;;;;;;;;;;31.80;35.80;;;;;;6159740;23;19992;-78
2022/06/14 11:25:21;;;;;;;;;;;31.80;36.10;;;;;;6160127;23;19927;-80
2022/06/14 11:27:57;;;;;;;;;;;31.70;36.80;;;;;;6159994;23;20293;-81
2022/06/14 11:30:33;;;;;;;;;;;31.80;36.20;;;;;;6160386;23;20094;-77
2022/06/14 11:33:11;;;;;;;;;;;31.90;36.60;;;;;;6186211;23;19943;-81
2022/06/14 11:35:37;;;;;;;;;;;32.00;35.70;;;;;;6186053;23;19947;-82
2022/06/14 11:38:25;;;;;;;;;;;32.00;35.70;;;;;;6159818;23;19928;-81
2022/06/14 11:40:56;;;;;;;;;;;32.10;35.60;;;;;;6159854;23;19940;-78
2022/06/14 11:43:34;;;;;;;;;;;32.20;36.40;;;;;;6160188;23;19924;-77
2022/06/14 11:46:12;;;;;;;;;;;32.30;37.00;;;;;;6186126;23;20332;-80
2022/06/14 11:48:46;;;;;;;;;;;32.50;36.20;;;;;;6160106;23;19927;-81
2022/06/14 11:51:16;;;;;;;;;;;32.60;35.40;;;;;;6160224;23;19971;-78
2022/06/14 11:54:07;;;;;;;;;;;32.70;35.70;;;;;;6159508;23;19924;-78
2022/06/14 11:56:40;;;;;;;;;;;32.70;34.50;;;;;;6159750;23;19927;-78
2022/06/14 11:59:16;;;;;;;;;;;32.80;34.70;;;;;;6159847;23;19925;-81
2022/06/14 12:02:01;;;;;;;;;;;32.80;36.10;;;;;;6186238;23;19924;-78
2022/06/14 12:04:34;;;;;;;;;;;32.50;35.20;;;;;;6159903;23;19920;-77
2022/06/14 12:07:00;;;;;;;;;;;32.40;35.70;;;;;;6160132;23;20249;-79
2022/06/14 12:09:31;;;;;;;;;;;32.50;35.60;;;;;;6159840;23;19920;-78
2022/06/14 12:11:58;;;;;;;;;;;32.40;36.00;;;;;;6159783;23;19920;-81
2022/06/14 12:14:36;;;;;;;;;;;32.40;36.00;;;;;;6160111;23;19924;-78
2022/06/14 12:17:10;;;;;;;;;;;32.40;35.80;;;;;;6185567;23;19965;-78
2022/06/14 12:19:39;;;;;;;;;;;32.40;35.80;;;;;;6160126;23;20341;-77
2022/06/14 12:22:26;;;;;;;;;;;32.50;35.90;;;;;;6160361;23;20410;-81
2022/06/14 12:27:41;;;;;;;;;;;32.70;36.20;;;;;;6186075;23;19924;-80
2022/06/14 12:30:09;;;;;;;;;;;32.80;36.00;;;;;;6159711;23;19947;-78
2022/06/14 12:32:39;;;;;;;;;;;32.90;36.60;;;;;;6185271;23;20300;-80
2022/06/14 12:35:10;;;;;;;;;;;33.00;36.00;;;;;;6159858;23;19927;-81
2022/06/14 12:37:45;;;;;;;;;;;33.00;35.50;;;;;;6159668;23;19950;-80
2022/06/14 12:40:12;;;;;;;;;;;32.90;36.30;;;;;;6159701;23;19970;-80
2022/06/14 12:42:45;;;;;;;;;;;32.90;36.00;;;;;;6159648;23;19943;-77
2022/06/14 12:45:16;;;;;;;;;;;33.00;36.50;;;;;;6159824;23;19998;-78
2022/06/14 12:48:02;;;;;;;;;;;33.20;36.10;;;;;;6159469;23;19920;-78
2022/06/14 12:50:32;;;;;;;;;;;33.40;35.20;;;;;;6159189;23;19924;-80
2022/06/14 12:53:03;;;;;;;;;;;33.40;35.00;;;;;;6159592;23;19924;-76
2022/06/14 12:55:35;;;;;;;;;;;33.40;35.30;;;;;;6158426;23;19921;-80
2022/06/14 12:58:23;;;;;;;;;;;33.50;34.70;;;;;;6156937;23;19924;-80
2022/06/14 13:00:50;;;;;;;;;;;33.60;35.80;;;;;;6159366;23;19920;-77
2022/06/14 13:03:24;;;;;;;;;;;33.60;34.60;;;;;;6160520;23;19924;-77
2022/06/14 13:05:58;;;;;;;;;;;33.50;35.00;;;;;;6161532;23;19975;-77
2022/06/14 13:08:45;;;;;;;;;;;33.50;34.90;;;;;;6159747;23;19928;-80
2022/06/14 13:11:17;;;;;;;;;;;33.40;34.90;;;;;;6159277;23;19991;-80
2022/06/14 17:15:02;;;;;;;;;;;30.80;43.20;;;;;;6180024;23;19927;-80
2022/06/14 17:18:04;;;;;;;;;;;30.80;43.70;;;;;;6158962;23;20341;-80
2022/06/14 17:20:37;;;;;;;;;;;30.90;44.00;;;;;;6013430;23;19929;-84
2022/06/14 17:23:04;;;;;;;;;;;30.90;43.80;;;;;;6137974;23;19921;-83
2022/06/14 17:31:18;;;;;;;;;;;30.80;43.90;;;;;;6185276;23;19921;-79
2022/06/14 17:33:47;;;;;;;;;;;30.70;44.50;;;;;;6159236;23;19927;-78
2022/06/14 17:36:23;;;;;;;;;;;30.60;44.40;;;;;;6159133;23;19966;-78
2022/06/14 17:38:52;;;;;;;;;;;30.50;44.30;;;;;;6159158;23;19920;-84
2022/06/14 17:41:24;;;;;;;;;;;30.50;44.50;;;;;;6159467;23;19927;-81
2022/06/14 17:43:55;;;;;;;;;;;30.40;44.60;;;;;;6159085;23;20353;-80
2022/06/14 17:46:27;;;;;;;;;;;30.40;44.40;;;;;;6157831;23;19928;-84
2022/06/14 17:49:00;;;;;;;;;;;30.40;44.10;;;;;;6159487;23;20226;-79
2022/06/14 17:51:31;;;;;;;;;;;30.30;44.10;;;;;;6160894;23;19920;-78
2022/06/14 17:54:06;;;;;;;;;;;30.30;44.10;;;;;;6186064;23;19924;-79
2022/06/14 17:56:52;;;;;;;;;;;30.20;43.70;;;;;;6160306;23;19924;-84
2022/06/14 17:59:25;;;;;;;;;;;30.20;44.00;;;;;;6160680;23;19920;-84
2022/06/14 18:02:12;;;;;;;;;;;30.10;44.40;;;;;;6160824;23;19932;-78
2022/06/14 18:04:45;;;;;;;;;;;30.00;44.50;;;;;;6134853;23;19920;-81
2022/06/14 18:07:12;;;;;;;;;;;30.00;45.30;;;;;;6160890;23;20000;-79
2022/06/14 18:09:51;;;;;;;;;;;30.00;45.80;;;;;;6160429;23;19921;-78
2022/06/14 18:12:19;;;;;;;;;;;29.90;46.80;;;;;;6160197;23;19924;-79
2022/06/14 18:14:48;;;;;;;;;;;29.80;47.80;;;;;;6161081;23;19970;-84
2022/06/14 18:17:29;;;;;;;;;;;29.70;48.50;;;;;;6160528;23;19920;-82
2022/06/14 18:23:07;;;;;;;;;;;29.50;48.70;;;;;;6186897;23;19975;-78
2022/06/14 18:26:07;;;;;;;;;;;29.50;49.20;;;;;;6160840;23;19920;-78
2022/06/14 18:28:34;;;;;;;;;;;29.40;50.10;;;;;;6081779;23;19920;-78
2022/06/14 18:31:27;;;;;;;;;;;29.30;50.60;;;;;;6161022;23;19971;-83
2022/06/14 18:33:57;;;;;;;;;;;29.20;50.80;;;;;;6105805;23;19995;-82
2022/06/14 18:36:24;;;;;;;;;;;29.10;50.60;;;;;;6160021;23;20260;-78
2022/06/14 18:38:55;;;;;;;;;;;29.00;50.40;;;;;;6186330;23;20443;-81
2022/06/14 18:41:25;;;;;;;;;;;29.10;50.70;;;;;;6187112;23;19991;-83
2022/06/14 18:44:08;;;;;;;;;;;29.10;51.20;;;;;;6160438;23;19983;-83
2022/06/14 18:46:34;;;;;;;;;;;29.10;51.30;;;;;;6160777;23;19935;-84
2022/06/14 18:49:04;;;;;;;;;;;29.00;52.70;;;;;;6160564;23;19927;-78
2022/06/14 18:51:34;;;;;;;;;;;28.90;53.20;;;;;;6159853;23;19921;-79
2022/06/14 18:54:05;;;;;;;;;;;28.80;52.30;;;;;;6185006;23;19920;-79
2022/06/14 18:56:36;;;;;;;;;;;28.70;52.10;;;;;;6190064;23;20710;-80
2022/06/14 18:59:12;;;;;;;;;;;28.70;52.20;;;;;;6189654;23;19951;-78
2022/06/14 19:01:39;;;;;;;;;;;28.60;51.90;;;;;;6189806;23;19920;-78
2022/06/14 19:04:29;;;;;;;;;;;28.50;51.20;;;;;;6189828;23;19920;-78
2022/06/14 19:06:56;;;;;;;;;;;28.40;50.60;;;;;;6214124;23;19920;-79
2022/06/14 19:09:28;;;;;;;;;;;28.30;50.40;;;;;;6189124;23;20292;-84
2022/06/14 19:12:14;;;;;;;;;;;28.30;50.30;;;;;;6215579;23;19924;-81
2022/06/14 19:15:00;;;;;;;;;;;28.20;50.90;;;;;;6189764;23;19927;-81
2022/06/14 19:17:45;;;;;;;;;;;28.10;50.90;;;;;;6189547;23;20420;-78
2022/06/14 19:20:14;;;;;;;;;;;28.00;51.10;;;;;;6189702;23;20328;-78